Time;durP1;ratioP1;P1;durP2;ratioP2;P2;SDS_P1;SDS_P2;PMS_P1;PMS_P2;Temp;Humidity;BMP_temperature;BMP_pressure;BME280_temperature;BME280_humidity;BME280_pressure;Samples;Min_cycle;Max_cycle;Signal;HPM_P1;HPM_P2
2023/07/24 00:01:37;;;;;;;0.20;0.20;;;;;;;19.71;94.72;99461.88;5022950;28;20194;-84
2023/07/24 00:04:03;;;;;;;0.10;0.10;;;;;;;19.72;94.88;99469.00;5022595;28;20676;-85
2023/07/24 00:06:28;;;;;;;0.40;0.27;;;;;;;19.71;94.97;99456.31;5032883;28;20191;-85
2023/07/24 00:08:53;;;;;;;1.20;0.77;;;;;;;19.72;94.63;99460.66;5023167;28;20542;-85
2023/07/24 00:11:19;;;;;;;0.10;0.10;;;;;;;19.67;94.67;99465.81;5022322;28;20720;-85
2023/07/24 00:13:45;;;;;;;1.07;0.37;;;;;;;19.72;94.76;99463.44;5022573;28;20276;-86
2023/07/24 00:16:10;;;;;;;0.40;0.40;;;;;;;19.76;93.92;99468.97;5040774;28;20195;-85
2023/07/24 00:18:35;;;;;;;0.00;0.00;;;;;;;19.63;93.99;99462.25;5040762;28;20180;-86
2023/07/24 00:21:01;;;;;;;0.10;0.10;;;;;;;19.59;94.34;99457.50;5038824;28;20218;-85
2023/07/24 00:23:26;;;;;;;0.03;0.03;;;;;;;19.66;94.24;99469.78;5017335;28;20364;-85
2023/07/24 00:25:52;;;;;;;0.20;0.10;;;;;;;19.66;94.04;99467.78;5040993;28;20259;-85
2023/07/24 00:28:18;;;;;;;0.10;0.10;;;;;;;19.69;94.06;99467.03;5040914;28;20678;-85
2023/07/24 00:30:43;;;;;;;0.83;0.40;;;;;;;19.58;94.36;99463.44;5040939;28;20287;-86
2023/07/24 00:33:08;;;;;;;0.30;0.30;;;;;;;19.65;94.41;99462.66;5032247;28;20273;-87
2023/07/24 00:35:34;;;;;;;0.07;0.07;;;;;;;19.74;93.81;99468.59;5023351;28;20275;-85
2023/07/24 00:37:59;;;;;;;0.00;0.00;;;;;;;19.71;93.72;99469.38;5040385;28;20561;-87
2023/07/24 00:40:24;;;;;;;0.00;0.00;;;;;;;19.71;94.38;99461.88;5040938;28;20211;-86
2023/07/24 00:42:50;;;;;;;0.10;0.10;;;;;;;19.76;93.78;99458.69;5021779;28;20494;-84
2023/07/24 00:45:15;;;;;;;0.00;0.00;;;;;;;19.61;93.91;99451.56;5039816;28;20183;-85
2023/07/24 00:47:42;;;;;;;0.03;0.03;;;;;;;19.63;94.30;99463.03;5039409;28;20179;-85
2023/07/24 00:50:09;;;;;;;0.07;0.07;;;;;;;19.69;93.99;99471.78;5037496;28;20176;-85
2023/07/24 00:52:34;;;;;;;0.00;0.00;;;;;;;19.68;93.91;99478.50;5033444;28;20252;-84
2023/07/24 00:55:00;;;;;;;0.00;0.00;;;;;;;19.72;93.58;99480.06;5033743;28;20172;-84
2023/07/24 00:57:25;;;;;;;0.30;0.30;;;;;;;19.64;93.62;99477.69;5033463;28;20270;-85
2023/07/24 00:59:51;;;;;;;1.37;0.37;;;;;;;19.55;94.04;99478.09;5016153;28;20180;-84
2023/07/24 01:02:16;;;;;;;0.20;0.20;;;;;;;19.54;93.97;99484.81;5034035;28;20208;-84
2023/07/24 01:04:42;;;;;;;0.00;0.00;;;;;;;19.59;94.13;99482.44;5034254;28;20617;-84
2023/07/24 01:07:08;;;;;;;0.00;0.00;;;;;;;19.60;94.00;99486.81;5015710;28;20191;-84
2023/07/24 01:09:33;;;;;;;0.00;0.00;;;;;;;19.58;94.03;99480.88;5033306;28;20702;-85
2023/07/24 01:12:07;;;;;;;0.00;0.00;;;;;;;19.64;93.67;99477.69;5032947;28;20195;-84
2023/07/24 01:14:45;;;;;;;0.17;0.17;;;;;;;19.70;93.55;99476.13;5033447;28;20196;-84
2023/07/24 01:17:16;;;;;;;0.20;0.20;;;;;;;19.61;93.48;99474.53;5033647;28;20176;-84
2023/07/24 01:19:48;;;;;;;0.50;0.30;;;;;;;19.53;93.69;99464.63;5015533;28;20191;-84
2023/07/24 01:22:29;;;;;;;1.80;0.33;;;;;;;19.51;94.08;99469.72;5017428;28;20885;-84
2023/07/24 01:25:11;;;;;;;0.03;0.03;;;;;;;19.49;93.92;99463.00;5032835;28;20313;-84
2023/07/24 01:27:41;;;;;;;0.00;0.00;;;;;;;19.43;94.60;99468.16;5015323;28;20255;-84
2023/07/24 01:30:07;;;;;;;0.63;0.63;;;;;;;19.39;94.61;99458.28;5015006;28;20417;-84
2023/07/24 01:32:32;;;;;;;0.30;0.30;;;;;;;19.37;94.83;99466.16;5032487;28;20749;-84
2023/07/24 01:34:58;;;;;;;0.23;0.23;;;;;;;19.39;94.50;99467.38;5014727;28;20215;-84
2023/07/24 01:37:25;;;;;;;0.00;0.00;;;;;;;19.44;94.67;99472.53;5014998;28;20191;-85
2023/07/24 01:39:51;;;;;;;0.00;0.00;;;;;;;19.47;94.46;99463.41;5032176;28;20179;-84
2023/07/24 01:42:17;;;;;;;0.13;0.13;;;;;;;19.44;94.48;99460.66;5007931;28;20211;-85
2023/07/24 01:44:42;;;;;;;2.17;0.60;;;;;;;19.44;94.86;99458.66;5007463;28;20602;-85
2023/07/24 01:47:07;;;;;;;0.40;0.30;;;;;;;19.45;94.66;99465.00;5014807;28;20226;-84
2023/07/24 01:49:32;;;;;;;0.00;0.00;;;;;;;19.48;94.98;99470.53;5032535;28;20214;-84
2023/07/24 01:51:58;;;;;;;0.00;0.00;;;;;;;19.52;95.10;99459.44;5014525;28;20183;-84
2023/07/24 01:54:23;;;;;;;0.40;0.40;;;;;;;19.45;95.16;99460.25;5032419;28;20235;-84
2023/07/24 01:56:48;;;;;;;0.70;0.70;;;;;;;19.40;95.11;99463.41;5014613;28;20550;-84
2023/07/24 01:59:14;;;;;;;0.37;0.37;;;;;;;19.42;95.01;99472.13;5031361;28;20222;-84
2023/07/24 02:01:39;;;;;;;0.17;0.17;;;;;;;19.40;94.92;99457.88;5032116;28;20733;-84
2023/07/24 02:04:04;;;;;;;0.00;0.00;;;;;;;19.42;94.95;99465.78;5014390;28;20216;-84
2023/07/24 02:06:29;;;;;;;0.73;0.67;;;;;;;19.37;94.94;99461.41;5032034;28;20188;-84
2023/07/24 02:08:55;;;;;;;0.00;0.00;;;;;;;19.38;94.70;99460.22;5014621;28;20187;-84
2023/07/24 02:11:20;;;;;;;0.50;0.50;;;;;;;19.44;94.68;99466.97;5032127;28;20184;-84
2023/07/24 02:13:46;;;;;;;0.30;0.27;;;;;;;19.44;94.33;99455.91;5014538;28;20212;-84
2023/07/24 02:16:12;;;;;;;0.40;0.40;;;;;;;19.52;94.13;99468.53;5032300;28;20544;-84
2023/07/24 02:18:38;;;;;;;0.27;0.20;;;;;;;19.57;93.96;99453.56;5032274;28;20191;-84
2023/07/24 02:21:04;;;;;;;0.37;0.20;;;;;;;19.56;93.63;99458.31;5031745;28;20188;-84
2023/07/24 02:23:29;;;;;;;0.00;0.00;;;;;;;19.65;93.55;99457.88;5032277;28;20792;-85
2023/07/24 02:25:54;;;;;;;3.77;0.13;;;;;;;19.60;93.28;99459.09;5032072;28;20187;-84
2023/07/24 02:28:20;;;;;;;0.30;0.30;;;;;;;19.49;93.98;99440.84;5032122;28;20258;-84
2023/07/24 02:30:47;;;;;;;0.00;0.00;;;;;;;19.47;94.38;99455.09;5031867;28;20556;-84
2023/07/24 02:33:12;;;;;;;0.30;0.13;;;;;;;19.43;94.18;99451.53;5014065;28;20208;-84
2023/07/24 02:35:41;;;;;;;0.53;0.53;;;;;;;19.43;94.80;99447.97;5014031;28;20201;-84
2023/07/24 02:38:07;;;;;;;0.03;0.03;;;;;;;19.43;94.71;99454.31;5014263;28;20233;-84
2023/07/24 02:40:33;;;;;;;0.00;0.00;;;;;;;19.38;94.85;99456.66;5031626;28;20642;-83
2023/07/24 02:42:58;;;;;;;0.37;0.33;;;;;;;19.31;94.99;99458.25;5014067;28;20243;-84
2023/07/24 02:45:23;;;;;;;0.00;0.00;;;;;;;19.38;95.24;99456.66;5031736;28;20175;-84
2023/07/24 02:47:48;;;;;;;0.10;0.03;;;;;;;19.30;95.46;99450.34;5031881;28;20191;-84
2023/07/24 02:50:14;;;;;;;0.10;0.10;;;;;;;19.27;95.71;99454.69;5013903;28;20191;-86
2023/07/24 02:52:39;;;;;;;0.10;0.10;;;;;;;19.19;95.62;99447.56;5031544;28;20199;-84
2023/07/24 02:55:05;;;;;;;0.70;0.70;;;;;;;19.09;96.22;99450.31;5014067;28;20195;-84
2023/07/24 02:57:30;;;;;;;0.00;0.00;;;;;;;19.11;96.59;99445.97;5032149;28;20183;-84
2023/07/24 02:59:55;;;;;;;15.93;0.63;;;;;;;18.98;97.39;99444.78;5031837;28;20641;-84
2023/07/24 03:02:21;;;;;;;0.10;0.10;;;;;;;18.85;97.90;99443.53;5031227;28;20216;-84
2023/07/24 03:04:46;;;;;;;5.57;0.53;;;;;;;18.79;98.74;99437.59;5031610;28;20653;-84
2023/07/24 03:07:11;;;;;;;0.57;0.57;;;;;;;18.83;98.62;99443.16;5031929;28;20540;-84
2023/07/24 03:09:36;;;;;;;0.20;0.20;;;;;;;18.81;98.69;99438.00;5014876;28;20183;-84
2023/07/24 03:12:02;;;;;;;0.00;0.00;;;;;;;18.85;99.15;99438.81;5017451;28;20606;-84
2023/07/24 03:14:27;;;;;;;0.67;0.20;;;;;;;18.84;98.88;99431.69;5017668;28;20191;-84
2023/07/24 03:16:52;;;;;;;0.20;0.20;;;;;;;18.77;98.79;99433.63;5017404;28;20654;-84
2023/07/24 03:19:20;;;;;;;0.27;0.27;;;;;;;18.72;99.28;99434.81;5035037;28;20187;-84
2023/07/24 03:21:45;;;;;;;1.27;1.17;;;;;;;18.62;99.54;99430.00;5017107;28;20188;-84
2023/07/24 03:24:10;;;;;;;0.10;0.10;;;;;;;18.69;99.78;99446.66;5034930;28;20210;-84
2023/07/24 03:26:35;;;;;;;0.20;0.20;;;;;;;18.70;99.70;99437.97;5035331;28;20183;-85
2023/07/24 03:29:01;;;;;;;0.07;0.07;;;;;;;18.71;99.45;99434.03;5017267;28;20183;-84
2023/07/24 03:31:26;;;;;;;0.10;0.10;;;;;;;18.67;99.63;99440.72;5017421;28;20180;-85
2023/07/24 03:33:51;;;;;;;0.00;0.00;;;;;;;18.58;100.00;99432.75;5035073;28;20192;-84
2023/07/24 03:36:16;;;;;;;0.10;0.00;;;;;;;18.59;100.00;99426.03;5017308;28;20187;-84
2023/07/24 03:38:42;;;;;;;0.00;0.00;;;;;;;18.76;100.00;99435.59;5017160;28;20681;-84
2023/07/24 03:41:07;;;;;;;0.00;0.00;;;;;;;18.69;99.74;99441.13;5016969;28;20191;-85
2023/07/24 03:43:32;;;;;;;0.20;0.20;;;;;;;18.68;99.86;99434.81;5034723;28;20742;-84
2023/07/24 03:45:57;;;;;;;0.00;0.00;;;;;;;18.63;100.00;99431.56;5034771;28;20180;-84
2023/07/24 03:48:23;;;;;;;0.10;0.10;;;;;;;18.66;100.00;99428.06;5016932;28;20266;-84
2023/07/24 03:50:50;;;;;;;0.00;0.00;;;;;;;18.61;100.00;99420.13;5034711;28;20183;-84
2023/07/24 03:53:15;;;;;;;0.00;0.00;;;;;;;18.58;100.00;99412.59;5017036;28;20279;-84
2023/07/24 03:55:41;;;;;;;0.00;0.00;;;;;;;18.62;100.00;99416.94;5016962;28;20279;-84
2023/07/24 03:58:06;;;;;;;0.40;0.40;;;;;;;18.65;99.93;99415.41;5034552;28;20179;-84
2023/07/24 04:00:31;;;;;;;0.00;0.00;;;;;;;18.69;100.00;99424.53;5016447;28;20176;-83
2023/07/24 04:02:56;;;;;;;0.00;0.00;;;;;;;18.72;99.76;99421.75;5033966;28;20212;-85
2023/07/24 04:05:22;;;;;;;0.00;0.00;;;;;;;18.56;99.72;99420.50;5034718;28;20259;-84
2023/07/24 04:07:47;;;;;;;0.27;0.27;;;;;;;18.47;100.00;99417.28;5034235;28;20179;-84
2023/07/24 04:10:12;;;;;;;0.00;0.00;;;;;;;18.43;100.00;99423.63;5034291;28;20187;-85
2023/07/24 04:12:37;;;;;;;0.00;0.00;;;;;;;18.49;100.00;99415.72;5034113;28;20708;-84
2023/07/24 04:15:03;;;;;;;0.20;0.20;;;;;;;18.50;100.00;99414.53;5025779;28;20204;-84
2023/07/24 04:17:28;;;;;;;0.47;0.47;;;;;;;18.59;100.00;99411.41;5010262;28;20452;-85
2023/07/24 04:19:54;;;;;;;0.00;0.00;;;;;;;18.54;100.00;99409.03;5015428;28;20183;-84
2023/07/24 04:22:19;;;;;;;0.20;0.20;;;;;;;18.61;100.00;99406.28;5033777;28;20211;-85
2023/07/24 04:24:44;;;;;;;0.00;0.00;;;;;;;18.67;100.00;99413.84;5017311;28;20219;-84
2023/07/24 04:27:09;;;;;;;0.00;0.00;;;;;;;18.62;100.00;99411.41;5034813;28;20186;-84
2023/07/24 04:29:35;;;;;;;0.00;0.00;;;;;;;18.63;100.00;99412.22;5017287;28;20189;-85
2023/07/24 04:32:00;;;;;;;0.03;0.03;;;;;;;18.54;100.00;99406.28;5034179;28;20807;-84
2023/07/24 04:34:25;;;;;;;0.00;0.00;;;;;;;18.65;100.00;99413.44;5017422;28;20183;-84
2023/07/24 04:36:51;;;;;;;0.47;0.47;;;;;;;18.74;100.00;99407.53;5016896;28;20221;-85
2023/07/24 04:39:16;;;;;;;0.00;0.00;;;;;;;18.73;100.00;99403.97;5016896;28;20190;-85
2023/07/24 04:41:41;;;;;;;0.00;0.00;;;;;;;18.57;100.00;99378.59;5016637;28;20670;-84
2023/07/24 04:44:06;;;;;;;0.00;0.00;;;;;;;18.57;100.00;99378.59;5016641;28;20211;-85
2023/07/24 04:46:32;;;;;;;0.27;0.13;;;;;;;18.52;100.00;99389.28;5016736;28;20187;-86
2023/07/24 04:48:57;;;;;;;0.00;0.00;;;;;;;18.48;100.00;99380.16;5034836;28;20176;-84
2023/07/24 04:51:22;;;;;;;0.10;0.10;;;;;;;18.47;100.00;99389.63;5016676;28;20538;-84
2023/07/24 04:53:47;;;;;;;0.10;0.10;;;;;;;18.46;100.00;99380.53;5034458;28;20207;-84
2023/07/24 04:56:13;;;;;;;0.00;0.00;;;;;;;18.52;100.00;99372.69;5034698;28;20616;-84
2023/07/24 04:58:38;;;;;;;0.00;0.00;;;;;;;18.56;100.00;99365.16;5016910;28;20176;-85
2023/07/24 05:01:04;;;;;;;0.00;0.00;;;;;;;18.67;100.00;99363.25;5034489;28;20180;-84
2023/07/24 05:03:30;;;;;;;0.23;0.23;;;;;;;18.76;100.00;99355.34;5016004;28;20211;-85
2023/07/24 05:05:58;;;;;;;0.00;0.00;;;;;;;18.87;100.00;99347.88;5017002;28;20229;-85
2023/07/24 05:08:23;;;;;;;0.20;0.20;;;;;;;18.97;100.00;99349.84;5016369;28;20187;-86
2023/07/24 05:10:58;;;;;;;0.00;0.00;;;;;;;19.06;100.00;99345.88;5016255;28;20179;-86
2023/07/24 05:13:24;;;;;;;0.00;0.00;;;;;;;19.20;100.00;99332.81;5034681;28;20207;-85
2023/07/24 05:15:49;;;;;;;0.00;0.00;;;;;;;19.27;99.21;99332.06;5016311;28;20187;-84
2023/07/24 05:18:15;;;;;;;0.10;0.10;;;;;;;19.30;98.20;99320.16;5017098;28;20751;-85
2023/07/24 05:20:48;;;;;;;0.00;0.00;;;;;;;19.32;97.86;99329.66;5016811;28;20226;-85
2023/07/24 05:23:13;;;;;;;0.00;0.00;;;;;;;19.30;97.86;99337.56;5026125;28;20253;-85
2023/07/24 05:25:38;;;;;;;0.00;0.00;;;;;;;19.35;97.53;99322.53;5016994;28;20612;-85
2023/07/24 05:28:04;;;;;;;0.10;0.10;;;;;;;19.43;97.17;99337.16;5034355;28;20261;-85
2023/07/24 05:30:29;;;;;;;0.00;0.00;;;;;;;19.51;97.24;99347.81;5016463;28;20270;-86
2023/07/24 05:32:54;;;;;;;0.10;0.10;;;;;;;19.59;96.50;99351.41;5015757;28;20686;-85
2023/07/24 05:35:20;;;;;;;0.63;0.50;;;;;;;19.67;96.38;99349.41;5034108;28;20211;-85
2023/07/24 05:37:46;;;;;;;0.00;0.00;;;;;;;19.62;96.08;99345.06;5034078;28;20530;-85
2023/07/24 05:40:11;;;;;;;0.00;0.00;;;;;;;19.65;95.77;99346.25;5016285;28;20179;-86
2023/07/24 05:42:41;;;;;;;0.00;0.00;;;;;;;19.61;96.84;99358.13;5015437;28;20561;-85
2023/07/24 05:45:07;;;;;;;0.00;0.00;;;;;;;19.69;97.10;99347.06;5033683;28;20176;-85
2023/07/24 05:47:33;;;;;;;0.00;0.00;;;;;;;19.69;97.09;99334.00;5001418;28;20195;-87
2023/07/24 05:49:58;;;;;;;0.00;0.00;;;;;;;19.69;97.20;99336.75;5038353;28;20184;-86
2023/07/24 05:52:23;;;;;;;0.00;0.00;;;;;;;19.74;97.37;99335.56;5037797;28;20203;-86
2023/07/24 05:54:49;;;;;;;0.00;0.00;;;;;;;19.78;97.79;99339.88;5038033;28;20187;-86
2023/07/24 05:57:14;;;;;;;0.00;0.00;;;;;;;19.71;98.93;99344.66;5029713;28;20663;-86
2023/07/24 05:59:39;;;;;;;0.00;0.00;;;;;;;19.74;99.59;99352.19;5019847;28;20188;-87
2023/07/24 06:02:05;;;;;;;0.00;0.00;;;;;;;19.47;100.00;99338.75;5037449;28;20192;-87
2023/07/24 06:04:31;;;;;;;0.00;0.00;;;;;;;19.53;100.00;99339.94;5019285;28;20192;-87
2023/07/24 06:06:56;;;;;;;0.00;0.00;;;;;;;19.56;100.00;99325.31;5015505;28;20226;-86
2023/07/24 06:09:21;;;;;;;0.87;0.87;;;;;;;19.68;99.82;99332.41;5006939;28;20182;-86
2023/07/24 06:11:46;;;;;;;0.00;0.00;;;;;;;19.72;99.18;99319.31;5011544;28;20646;-84
2023/07/24 06:14:12;;;;;;;1.30;1.20;;;;;;;19.74;99.46;99322.47;5013981;28;20318;-85
2023/07/24 06:16:37;;;;;;;0.93;0.90;;;;;;;19.70;98.46;99324.47;5032382;28;20180;-85
2023/07/24 06:19:02;;;;;;;0.50;0.50;;;;;;;19.81;98.46;99316.09;5001318;28;20207;-85
2023/07/24 06:21:28;;;;;;;0.10;0.10;;;;;;;19.85;97.60;99311.38;5014874;28;20188;-85
2023/07/24 06:23:53;;;;;;;1.20;1.10;;;;;;;19.92;97.63;99308.56;5004246;28;20226;-84
2023/07/24 06:26:18;;;;;;;0.37;0.37;;;;;;;19.99;96.60;99307.75;5014997;28;20574;-84
2023/07/24 06:28:43;;;;;;;0.10;0.10;;;;;;;20.06;96.67;99300.16;5015409;28;20323;-84
2023/07/24 06:31:09;;;;;;;0.37;0.37;;;;;;;20.19;96.14;99292.19;5033787;28;20242;-84
2023/07/24 06:33:34;;;;;;;0.20;0.20;;;;;;;20.19;94.54;99283.88;5017381;28;20204;-84
2023/07/24 06:35:59;;;;;;;1.23;1.10;;;;;;;20.25;94.34;99298.09;5034671;28;20188;-84
2023/07/24 06:38:24;;;;;;;0.37;0.30;;;;;;;20.17;92.76;99281.50;5016595;28;20191;-84
2023/07/24 06:40:50;;;;;;;0.33;0.33;;;;;;;20.06;92.78;99277.19;5034520;28;20256;-84
2023/07/24 06:43:15;;;;;;;0.63;0.63;;;;;;;20.12;92.70;99278.38;5023493;28;20415;-87
2023/07/24 06:45:41;;;;;;;0.73;0.73;;;;;;;20.19;93.30;99273.56;5028808;28;20180;-84
2023/07/24 06:48:06;;;;;;;1.33;1.20;;;;;;;20.21;92.90;99276.72;5021055;28;20203;-85
2023/07/24 06:50:31;;;;;;;0.57;0.57;;;;;;;20.27;92.45;99260.47;5023877;28;20184;-87
2023/07/24 06:52:57;;;;;;;0.13;0.13;;;;;;;20.31;92.01;99265.97;5015141;28;20199;-86
2023/07/24 06:55:22;;;;;;;0.00;0.00;;;;;;;20.41;91.49;99265.13;5005517;28;20177;-85
2023/07/24 06:57:47;;;;;;;0.33;0.33;;;;;;;20.43;91.07;99268.31;5013903;28;20203;-87
2023/07/24 07:00:13;;;;;;;0.00;0.00;;;;;;;20.54;91.09;99269.00;5015015;28;20219;-87
2023/07/24 07:02:39;;;;;;;3.07;1.20;;;;;;;20.60;89.65;99270.16;5021080;28;20212;-84
2023/07/24 07:05:05;;;;;;;0.93;0.67;;;;;;;20.71;89.62;99278.41;5019460;28;20190;-84
2023/07/24 07:07:30;;;;;;;1.00;0.90;;;;;;;20.74;88.29;99272.84;5019917;28;20181;-86
2023/07/24 07:09:56;;;;;;;0.20;0.20;;;;;;;20.84;87.20;99264.84;5018609;28;20185;-85
2023/07/24 07:12:21;;;;;;;1.57;0.93;;;;;;;20.84;86.55;99256.50;5032556;28;20613;-85
2023/07/24 07:14:46;;;;;;;0.63;0.63;;;;;;;20.77;86.15;99249.00;5031694;28;20199;-87
2023/07/24 07:17:12;;;;;;;4.83;0.83;;;;;;;20.75;86.04;99246.66;5031373;28;20176;-84
2023/07/24 07:19:37;;;;;;;4.77;1.10;;;;;;;20.75;85.98;99243.09;5029162;28;20184;-86
2023/07/24 07:22:02;;;;;;;0.63;0.63;;;;;;;20.79;85.18;99235.50;5010583;28;20207;-85
2023/07/24 07:24:28;;;;;;;0.30;0.30;;;;;;;20.96;85.01;99247.66;5038082;28;20231;-86
2023/07/24 07:26:53;;;;;;;4.13;0.53;;;;;;;21.13;84.92;99248.72;5029547;28;20182;-85
2023/07/24 07:29:18;;;;;;;0.70;0.70;;;;;;;21.20;84.06;99246.63;5021339;28;20327;-87
2023/07/24 07:31:44;;;;;;;0.77;0.77;;;;;;;21.25;83.32;99239.84;5023106;28;20676;-83
2023/07/24 07:34:09;;;;;;;0.50;0.40;;;;;;;21.45;82.78;99240.06;5010994;28;20304;-86
2023/07/24 07:36:34;;;;;;;0.63;0.63;;;;;;;21.73;81.82;99239.72;5020966;28;20260;-87
2023/07/24 07:38:59;;;;;;;1.77;1.67;;;;;;;21.75;79.84;99231.75;5019209;28;20279;-87
2023/07/24 07:41:25;;;;;;;0.43;0.43;;;;;;;21.81;79.27;99215.38;5014618;28;20271;-86
2023/07/24 07:43:50;;;;;;;1.90;0.97;;;;;;;21.98;78.91;99209.56;5020471;28;20266;-86
2023/07/24 07:46:15;;;;;;;0.30;0.30;;;;;;;22.08;78.54;99212.66;5035432;28;20197;-86
2023/07/24 07:48:41;;;;;;;0.20;0.20;;;;;;;22.14;78.74;99222.91;5027502;28;20185;-86
2023/07/24 07:51:06;;;;;;;0.27;0.27;;;;;;;22.20;78.13;99217.66;5029864;28;20222;-84
2023/07/24 07:53:31;;;;;;;1.10;1.10;;;;;;;22.07;77.00;99216.66;5021691;28;20200;-86
2023/07/24 07:55:59;;;;;;;1.13;1.13;;;;;;;22.02;77.08;99206.75;5036740;28;20548;-86
2023/07/24 07:58:24;;;;;;;0.50;0.30;;;;;;;22.03;76.92;99202.78;5007297;28;20751;-86
2023/07/24 08:00:49;;;;;;;1.10;0.73;;;;;;;22.06;76.08;99193.59;5017427;28;20214;-85
2023/07/24 08:03:15;;;;;;;0.67;0.67;;;;;;;22.10;75.91;99190.78;5029206;28;20226;-87
2023/07/24 08:05:40;;;;;;;1.87;1.77;;;;;;;22.18;77.72;99208.94;5020560;28;20196;-86
2023/07/24 08:08:05;;;;;;;3.23;1.33;;;;;;;21.91;78.80;99204.13;5033617;28;20284;-85
2023/07/24 08:10:30;;;;;;;0.80;0.73;;;;;;;21.68;79.74;99204.81;5010851;28;20188;-85
2023/07/24 08:12:56;;;;;;;2.33;1.33;;;;;;;21.35;81.62;99198.06;5016867;28;20254;-86
2023/07/24 08:15:21;;;;;;;1.70;1.10;;;;;;;21.17;81.70;99197.47;5005057;28;20689;-87
2023/07/24 08:17:46;;;;;;;2.37;1.43;;;;;;;21.00;82.64;99204.78;5034873;28;20192;-85
2023/07/24 08:20:12;;;;;;;0.67;0.67;;;;;;;20.97;83.37;99219.47;5034504;28;20184;-87
2023/07/24 08:22:37;;;;;;;2.53;1.60;;;;;;;20.89;84.19;99215.19;5017179;28;20585;-85
2023/07/24 08:25:03;;;;;;;0.57;0.57;;;;;;;21.14;84.64;99228.06;5035279;28;20219;-85
2023/07/24 08:27:28;;;;;;;0.87;0.80;;;;;;;21.35;84.28;99228.63;5027183;28;20273;-86
2023/07/24 08:29:53;;;;;;;1.27;1.20;;;;;;;21.62;82.79;99236.28;5010178;28;20187;-86
2023/07/24 08:32:19;;;;;;;2.77;1.30;;;;;;;21.47;81.50;99218.19;5017047;28;20188;-85
2023/07/24 08:34:45;;;;;;;68.23;2.40;;;;;;;21.36;81.82;99227.44;5035068;28;20189;-87
2023/07/24 08:37:11;;;;;;;3.47;1.10;;;;;;;21.22;81.10;99219.22;5018035;28;20184;-85
2023/07/24 08:39:37;;;;;;;1.57;0.93;;;;;;;21.04;82.29;99216.63;5004788;28;20192;-85
2023/07/24 08:42:12;;;;;;;1.67;1.57;;;;;;;21.09;83.08;99229.28;5006647;28;20212;-86
2023/07/24 08:44:38;;;;;;;11.90;1.20;;;;;;;21.01;82.80;99213.91;5028415;28;20257;-87
2023/07/24 08:47:04;;;;;;;0.77;0.77;;;;;;;21.00;83.20;99220.66;5034646;28;20653;-86
2023/07/24 08:49:30;;;;;;;2.00;1.47;;;;;;;21.03;83.46;99240.06;5034266;28;20183;-86
2023/07/24 08:51:57;;;;;;;4.73;1.00;;;;;;;20.98;83.64;99226.63;5012875;28;20651;-87
2023/07/24 08:54:24;;;;;;;0.50;0.50;;;;;;;21.12;83.47;99228.47;5029218;28;20180;-86
2023/07/24 08:56:51;;;;;;;0.50;0.50;;;;;;;21.17;82.44;99233.56;5009131;28;20183;-87
2023/07/24 08:59:17;;;;;;;80.13;35.93;;;;;;;21.21;82.32;99222.41;5016246;28;20680;-86
2023/07/24 09:01:42;;;;;;;0.50;0.50;;;;;;;21.34;81.75;99226.28;5007922;28;20189;-86
2023/07/24 09:04:07;;;;;;;0.80;0.80;;;;;;;21.45;82.47;99251.97;5007897;28;20274;-86
2023/07/24 09:06:33;;;;;;;2.20;1.27;;;;;;;21.36;82.13;99234.97;5017757;28;20188;-87
2023/07/24 09:08:58;;;;;;;9.00;1.77;;;;;;;21.55;82.21;99239.13;5029695;28;20193;-86
2023/07/24 09:11:23;;;;;;;0.77;0.77;;;;;;;21.46;81.41;99234.09;5026856;28;20230;-86
2023/07/24 09:13:49;;;;;;;1.27;1.17;;;;;;;21.22;81.68;99224.00;5015597;28;20220;-86
2023/07/24 09:16:23;;;;;;;1.33;1.23;;;;;;;21.25;82.27;99235.09;5025932;28;20239;-86
2023/07/24 09:18:51;;;;;;;0.97;0.80;;;;;;;21.21;82.22;99225.97;5008585;28;20204;-86
2023/07/24 09:21:27;;;;;;;0.87;0.83;;;;;;;21.30;83.64;99245.78;5007965;28;20181;-86
2023/07/24 09:23:52;;;;;;;0.60;0.60;;;;;;;21.37;83.67;99242.91;5017717;28;20246;-86
2023/07/24 09:26:17;;;;;;;0.97;0.97;;;;;;;21.31;83.07;99227.09;5019579;28;20254;-86
2023/07/24 09:28:52;;;;;;;0.60;0.60;;;;;;;21.45;82.87;99243.63;5033982;28;20656;-87
2023/07/24 09:31:17;;;;;;;0.30;0.30;;;;;;;21.41;82.41;99230.94;5033316;28;20183;-86
2023/07/24 09:33:46;;;;;;;0.97;0.97;;;;;;;21.36;82.63;99232.19;5034142;28;20200;-86
2023/07/24 09:36:12;;;;;;;0.97;0.97;;;;;;;21.48;81.94;99230.88;5000838;28;20183;-86
2023/07/24 09:38:39;;;;;;;1.03;1.03;;;;;;;21.66;82.11;99234.22;5028241;28;20179;-86
2023/07/24 09:41:05;;;;;;;0.77;0.77;;;;;;;21.91;81.00;99236.72;5014724;28;20638;-87
2023/07/24 09:43:31;;;;;;;1.40;0.97;;;;;;;22.24;81.55;99243.44;5032691;28;20204;-87
2023/07/24 09:45:57;;;;;;;0.30;0.30;;;;;;;22.51;78.61;99241.44;5015063;28;20674;-86
2023/07/24 09:48:26;;;;;;;0.90;0.90;;;;;;;22.62;77.62;99237.69;5010431;28;20186;-86
2023/07/24 09:50:57;;;;;;;1.30;1.20;;;;;;;22.43;76.27;99220.50;5021224;28;20182;-87
2023/07/24 09:53:31;;;;;;;0.00;0.00;;;;;;;22.50;77.81;99233.50;5008916;28;20599;-86
2023/07/24 09:56:02;;;;;;;0.93;0.47;;;;;;;22.47;76.10;99221.22;5033535;28;20262;-86
2023/07/24 09:58:29;;;;;;;1.07;0.97;;;;;;;22.11;75.18;99206.25;5024773;28;20231;-86
2023/07/24 10:00:54;;;;;;;0.87;0.87;;;;;;;22.07;76.28;99213.88;5017070;28;20178;-87
2023/07/24 10:03:22;;;;;;;1.03;1.00;;;;;;;21.98;76.11;99209.56;5010787;28;20216;-86
2023/07/24 10:05:47;;;;;;;0.40;0.40;;;;;;;22.16;76.68;99219.72;5030235;28;20714;-86
2023/07/24 10:08:17;;;;;;;0.10;0.10;;;;;;;22.25;76.24;99211.59;5033099;28;20260;-86
2023/07/24 10:10:43;;;;;;;1.23;0.67;;;;;;;22.32;75.51;99199.59;4998426;28;20192;-87
2023/07/24 10:13:14;;;;;;;1.10;0.80;;;;;;;22.27;75.84;99212.75;5016004;28;20284;-87
2023/07/24 10:15:43;;;;;;;0.27;0.27;;;;;;;22.50;75.72;99203.66;4999392;28;20194;-87
2023/07/24 10:18:10;;;;;;;0.30;0.23;;;;;;;22.59;74.94;99196.78;5005024;28;20190;-87
2023/07/24 10:20:38;;;;;;;0.83;0.83;;;;;;;22.56;75.02;99203.97;5027179;28;20343;-86
2023/07/24 10:23:04;;;;;;;0.50;0.30;;;;;;;22.56;74.53;99188.03;5005852;28;20232;-87
2023/07/24 10:25:32;;;;;;;1.30;1.20;;;;;;;22.73;74.69;99191.75;5031958;28;20188;-86
2023/07/24 10:28:10;;;;;;;0.27;0.27;;;;;;;23.01;73.65;99178.56;5014435;28;20196;-86
2023/07/24 10:30:39;;;;;;;1.17;1.10;;;;;;;23.35;73.29;99170.72;5014248;28;20194;-87
2023/07/24 10:33:12;;;;;;;0.90;0.90;;;;;;;23.45;70.95;99155.00;5023546;28;20244;-87
2023/07/24 10:35:45;;;;;;;1.00;0.90;;;;;;;23.38;69.84;99144.75;5014707;28;20187;-87
2023/07/24 10:38:13;;;;;;;0.90;0.90;;;;;;;23.40;70.09;99144.34;5016062;28;20208;-87
2023/07/24 10:40:40;;;;;;;0.50;0.50;;;;;;;23.39;69.57;99131.63;5031713;28;20198;-88
2023/07/24 10:43:11;;;;;;;0.43;0.43;;;;;;;23.43;69.46;99132.31;4997140;28;20223;-87
2023/07/24 10:45:51;;;;;;;1.10;1.10;;;;;;;23.27;69.45;99123.91;5011759;28;20214;-87
2023/07/24 10:48:21;;;;;;;0.60;0.60;;;;;;;23.29;69.51;99130.63;5008461;28;20189;-88
2023/07/24 10:50:49;;;;;;;0.10;0.10;;;;;;;23.23;68.90;99117.63;5006181;28;20275;-87
2023/07/24 10:53:18;;;;;;;0.57;0.33;;;;;;;23.38;69.73;99127.25;5002168;28;20214;-87
2023/07/24 10:55:45;;;;;;;6.23;1.10;;;;;;;23.67;68.72;99131.03;4995214;28;20230;-88
2023/07/24 10:58:12;;;;;;;1.57;1.40;;;;;;;23.57;68.20;99125.66;5020790;28;20194;-87
2023/07/24 11:00:40;;;;;;;3.20;0.93;;;;;;;23.45;68.29;99124.34;5002072;28;20192;-86
2023/07/24 11:03:08;;;;;;;0.73;0.73;;;;;;;23.53;69.05;99133.31;5021403;28;20207;-88
2023/07/24 11:05:34;;;;;;;0.70;0.70;;;;;;;23.63;68.44;99130.34;5026804;28;20210;-87
2023/07/24 11:07:59;;;;;;;2.90;1.47;;;;;;;23.90;67.98;99123.75;5004169;28;20693;-87
2023/07/24 11:10:24;;;;;;;1.30;1.20;;;;;;;24.11;67.48;99123.25;5000324;28;20184;-87
2023/07/24 11:12:53;;;;;;;2.20;1.10;;;;;;;24.23;65.37;99113.41;5038398;28;20233;-88
2023/07/24 11:15:26;;;;;;;1.30;1.20;;;;;;;24.24;64.25;99126.91;5018284;28;20175;-86
2023/07/24 11:17:51;;;;;;;1.37;1.27;;;;;;;24.02;64.28;99117.50;5024287;28;20248;-86
2023/07/24 11:20:17;;;;;;;1.23;1.13;;;;;;;24.01;64.05;99111.13;5027735;28;20262;-88
2023/07/24 11:22:44;;;;;;;1.10;1.00;;;;;;;24.30;63.53;99116.84;5031238;28;20207;-87
2023/07/24 11:25:10;;;;;;;0.70;0.67;;;;;;;24.14;62.43;99108.41;5011047;28;20704;-88
2023/07/24 11:27:43;;;;;;;1.77;1.67;;;;;;;23.96;63.07;99102.47;4998855;28;20187;-87